sensor_id;sensor_type;location;lat;lon;timestamp;pressure;altitude;pressure_sealevel;temperature;humidity
75553;BME280;64136;53.118;17.996;2023-05-10T00:01:40;101326.10;;;10.97;41.40
75553;BME280;64136;53.118;17.996;2023-05-10T00:04:06;101325.41;;;10.93;41.13
75553;BME280;64136;53.118;17.996;2023-05-10T00:06:32;101326.55;;;10.92;41.26
75553;BME280;64136;53.118;17.996;2023-05-10T00:08:59;101327.77;;;10.90;40.66
75553;BME280;64136;53.118;17.996;2023-05-10T00:11:25;101323.73;;;10.85;41.23
75553;BME280;64136;53.118;17.996;2023-05-10T00:13:51;101327.89;;;10.81;42.04
75553;BME280;64136;53.118;17.996;2023-05-10T00:16:17;101325.14;;;10.76;42.32
75553;BME280;64136;53.118;17.996;2023-05-10T00:18:44;101328.48;;;10.72;42.53
75553;BME280;64136;53.118;17.996;2023-05-10T00:21:10;101329.23;;;10.68;42.56
75553;BME280;64136;53.118;17.996;2023-05-10T00:23:36;101324.77;;;10.66;42.43
75553;BME280;64136;53.118;17.996;2023-05-10T00:26:03;101326.59;;;10.65;41.65
75553;BME280;64136;53.118;17.996;2023-05-10T00:28:29;101321.38;;;10.63;42.56
75553;BME280;64136;53.118;17.996;2023-05-10T00:30:56;101317.23;;;10.61;42.59
75553;BME280;64136;53.118;17.996;2023-05-10T00:33:22;101315.10;;;10.58;42.83
75553;BME280;64136;53.118;17.996;2023-05-10T00:35:48;101312.06;;;10.55;41.85
75553;BME280;64136;53.118;17.996;2023-05-10T00:38:15;101311.33;;;10.52;42.51
75553;BME280;64136;53.118;17.996;2023-05-10T00:40:41;101310.23;;;10.50;42.27
75553;BME280;64136;53.118;17.996;2023-05-10T00:43:11;101308.69;;;10.45;43.50
75553;BME280;64136;53.118;17.996;2023-05-10T00:45:40;101308.83;;;10.46;42.45
75553;BME280;64136;53.118;17.996;2023-05-10T00:48:10;101305.65;;;10.43;43.18
75553;BME280;64136;53.118;17.996;2023-05-10T00:50:37;101307.17;;;10.40;42.80
75553;BME280;64136;53.118;17.996;2023-05-10T00:53:06;101301.61;;;10.38;43.03
75553;BME280;64136;53.118;17.996;2023-05-10T00:55:32;101302.70;;;10.34;43.01
75553;BME280;64136;53.118;17.996;2023-05-10T00:57:58;101301.57;;;10.29;43.75
75553;BME280;64136;53.118;17.996;2023-05-10T01:00:25;101298.78;;;10.25;43.61
75553;BME280;64136;53.118;17.996;2023-05-10T01:02:53;101301.24;;;10.22;42.82
75553;BME280;64136;53.118;17.996;2023-05-10T01:05:19;101303.78;;;10.21;42.46
75553;BME280;64136;53.118;17.996;2023-05-10T01:07:46;101302.98;;;10.19;44.13
75553;BME280;64136;53.118;17.996;2023-05-10T01:10:12;101303.02;;;10.14;43.58
75553;BME280;64136;53.118;17.996;2023-05-10T01:12:40;101303.89;;;10.11;43.41
75553;BME280;64136;53.118;17.996;2023-05-10T01:15:09;101300.05;;;10.10;43.48
75553;BME280;64136;53.118;17.996;2023-05-10T01:17:45;101297.66;;;10.08;44.53
75553;BME280;64136;53.118;17.996;2023-05-10T01:20:14;101296.77;;;10.05;44.20
75553;BME280;64136;53.118;17.996;2023-05-10T01:31:27;101288.28;;;9.81;44.09
75553;BME280;64136;53.118;17.996;2023-05-10T01:33:59;101287.52;;;9.75;45.78
75553;BME280;64136;53.118;17.996;2023-05-10T01:36:35;101281.88;;;9.67;45.21
75553;BME280;64136;53.118;17.996;2023-05-10T01:42:03;101281.88;;;9.57;46.21
75553;BME280;64136;53.118;17.996;2023-05-10T01:44:55;101280.34;;;9.52;46.18
75553;BME280;64136;53.118;17.996;2023-05-10T01:47:40;101278.42;;;9.47;45.90
75553;BME280;64136;53.118;17.996;2023-05-10T01:50:15;101276.48;;;9.44;46.25
75553;BME280;64136;53.118;17.996;2023-05-10T01:52:50;101274.99;;;9.42;46.02
75553;BME280;64136;53.118;17.996;2023-05-10T01:55:20;101277.56;;;9.40;46.61
75553;BME280;64136;53.118;17.996;2023-05-10T01:57:51;101276.20;;;9.36;46.86
75553;BME280;64136;53.118;17.996;2023-05-10T02:00:19;101273.62;;;9.35;46.68
75553;BME280;64136;53.118;17.996;2023-05-10T02:02:49;101270.27;;;9.31;47.26
75553;BME280;64136;53.118;17.996;2023-05-10T02:05:17;101268.45;;;9.24;46.98
75553;BME280;64136;53.118;17.996;2023-05-10T02:07:45;101266.70;;;9.20;46.68
75553;BME280;64136;53.118;17.996;2023-05-10T02:12:42;101258.95;;;9.09;47.49
75553;BME280;64136;53.118;17.996;2023-05-10T02:15:11;101262.79;;;9.02;47.57
75553;BME280;64136;53.118;17.996;2023-05-10T02:20:06;101254.61;;;8.93;48.11
75553;BME280;64136;53.118;17.996;2023-05-10T02:22:33;101250.16;;;8.89;47.48
75553;BME280;64136;53.118;17.996;2023-05-10T02:25:03;101248.70;;;8.83;48.46
75553;BME280;64136;53.118;17.996;2023-05-10T02:27:30;101243.79;;;8.78;48.46
75553;BME280;64136;53.118;17.996;2023-05-10T02:29:57;101244.77;;;8.76;48.04
75553;BME280;64136;53.118;17.996;2023-05-10T02:32:25;101247.61;;;8.76;48.03
75553;BME280;64136;53.118;17.996;2023-05-10T02:34:57;101249.78;;;8.71;49.61
75553;BME280;64136;53.118;17.996;2023-05-10T02:37:25;101245.33;;;8.61;50.40
75553;BME280;64136;53.118;17.996;2023-05-10T02:40:12;101249.00;;;8.54;49.22
75553;BME280;64136;53.118;17.996;2023-05-10T02:42:41;101245.77;;;8.44;50.26
75553;BME280;64136;53.118;17.996;2023-05-10T02:45:12;101243.85;;;8.35;50.85
75553;BME280;64136;53.118;17.996;2023-05-10T02:47:39;101248.45;;;8.26;50.99
75553;BME280;64136;53.118;17.996;2023-05-10T02:50:06;101248.68;;;8.17;51.17
75553;BME280;64136;53.118;17.996;2023-05-10T02:52:40;101251.14;;;8.09;51.82
75553;BME280;64136;53.118;17.996;2023-05-10T02:55:09;101251.19;;;8.00;52.28
75553;BME280;64136;53.118;17.996;2023-05-10T02:57:41;101247.76;;;7.94;52.27
75553;BME280;64136;53.118;17.996;2023-05-10T03:00:09;101246.25;;;7.92;51.85
75553;BME280;64136;53.118;17.996;2023-05-10T03:02:36;101248.38;;;7.88;52.59
75553;BME280;64136;53.118;17.996;2023-05-10T03:05:02;101248.87;;;7.85;52.41
75553;BME280;64136;53.118;17.996;2023-05-10T03:07:29;101253.23;;;7.82;52.33
75553;BME280;64136;53.118;17.996;2023-05-10T03:09:56;101254.27;;;7.79;53.28
75553;BME280;64136;53.118;17.996;2023-05-10T03:12:41;101253.59;;;7.78;52.74
75553;BME280;64136;53.118;17.996;2023-05-10T03:15:33;101251.64;;;7.78;52.91
75553;BME280;64136;53.118;17.996;2023-05-10T03:18:12;101251.26;;;7.79;52.67
75553;BME280;64136;53.118;17.996;2023-05-10T03:20:47;101252.02;;;7.81;52.45
75553;BME280;64136;53.118;17.996;2023-05-10T03:23:24;101247.15;;;7.84;52.23
75553;BME280;64136;53.118;17.996;2023-05-10T03:25:53;101248.00;;;7.88;52.31
75553;BME280;64136;53.118;17.996;2023-05-10T03:28:21;101246.25;;;7.92;51.64
75553;BME280;64136;53.118;17.996;2023-05-10T03:30:49;101249.58;;;7.97;51.95
75553;BME280;64136;53.118;17.996;2023-05-10T03:33:16;101247.90;;;7.99;51.98
75553;BME280;64136;53.118;17.996;2023-05-10T03:35:44;101248.44;;;8.03;52.02
75553;BME280;64136;53.118;17.996;2023-05-10T03:38:12;101243.48;;;8.03;52.48
75553;BME280;64136;53.118;17.996;2023-05-10T03:40:39;101243.49;;;8.07;51.82
75553;BME280;64136;53.118;17.996;2023-05-10T03:43:05;101242.66;;;8.09;51.58
75553;BME280;64136;53.118;17.996;2023-05-10T03:45:32;101246.08;;;8.16;51.51
75553;BME280;64136;53.118;17.996;2023-05-10T03:47:59;101242.92;;;8.19;51.29
75553;BME280;64136;53.118;17.996;2023-05-10T03:50:25;101239.70;;;8.28;50.86
75553;BME280;64136;53.118;17.996;2023-05-10T03:52:53;101236.47;;;8.34;50.78
75553;BME280;64136;53.118;17.996;2023-05-10T03:55:19;101239.02;;;8.36;50.59
75553;BME280;64136;53.118;17.996;2023-05-10T03:57:46;101239.79;;;8.43;50.38
75553;BME280;64136;53.118;17.996;2023-05-10T04:00:12;101236.35;;;8.49;50.29
75553;BME280;64136;53.118;17.996;2023-05-10T04:02:40;101239.98;;;8.50;50.17
75553;BME280;64136;53.118;17.996;2023-05-10T04:05:10;101234.69;;;8.58;50.04
75553;BME280;64136;53.118;17.996;2023-05-10T04:07:37;101238.44;;;8.65;49.82
75553;BME280;64136;53.118;17.996;2023-05-10T04:10:04;101237.59;;;8.67;49.60
75553;BME280;64136;53.118;17.996;2023-05-10T04:12:30;101243.04;;;8.72;49.64
75553;BME280;64136;53.118;17.996;2023-05-10T04:14:56;101241.16;;;8.74;49.54
75553;BME280;64136;53.118;17.996;2023-05-10T04:17:23;101238.61;;;8.79;49.33
75553;BME280;64136;53.118;17.996;2023-05-10T04:19:49;101238.63;;;8.83;49.40
75553;BME280;64136;53.118;17.996;2023-05-10T04:22:19;101233.69;;;8.83;49.16
75553;BME280;64136;53.118;17.996;2023-05-10T04:24:45;101238.02;;;8.92;49.07
75553;BME280;64136;53.118;17.996;2023-05-10T04:27:11;101237.59;;;8.98;48.92
75553;BME280;64136;53.118;17.996;2023-05-10T04:29:37;101238.34;;;9.04;48.67
75553;BME280;64136;53.118;17.996;2023-05-10T04:32:04;101237.91;;;9.09;48.65
75553;BME280;64136;53.118;17.996;2023-05-10T04:34:30;101241.25;;;9.16;48.49
75553;BME280;64136;53.118;17.996;2023-05-10T04:36:56;101244.54;;;9.25;48.44
75553;BME280;64136;53.118;17.996;2023-05-10T04:39:23;101237.94;;;9.34;48.22
75553;BME280;64136;53.118;17.996;2023-05-10T04:41:49;101239.04;;;9.40;48.46
75553;BME280;64136;53.118;17.996;2023-05-10T04:44:15;101234.70;;;9.49;48.29
75553;BME280;64136;53.118;17.996;2023-05-10T04:46:41;101230.74;;;9.58;47.81
75553;BME280;64136;53.118;17.996;2023-05-10T04:49:08;101229.61;;;9.62;47.61
75553;BME280;64136;53.118;17.996;2023-05-10T04:51:34;101231.05;;;9.65;47.59
75553;BME280;64136;53.118;17.996;2023-05-10T04:56:26;101229.90;;;9.77;47.38
75553;BME280;64136;53.118;17.996;2023-05-10T04:58:53;101229.25;;;9.86;47.22
75553;BME280;64136;53.118;17.996;2023-05-10T05:01:19;101225.49;;;9.94;46.99
75553;BME280;64136;53.118;17.996;2023-05-10T05:03:45;101226.80;;;10.03;46.86
75553;BME280;64136;53.118;17.996;2023-05-10T05:06:12;101221.21;;;10.11;46.34
75553;BME280;64136;53.118;17.996;2023-05-10T05:08:38;101219.98;;;10.22;46.23
75553;BME280;64136;53.118;17.996;2023-05-10T05:11:04;101216.56;;;10.33;46.17
75553;BME280;64136;53.118;17.996;2023-05-10T05:13:31;101212.98;;;10.43;45.87
75553;BME280;64136;53.118;17.996;2023-05-10T05:15:57;101214.71;;;10.57;45.57
75553;BME280;64136;53.118;17.996;2023-05-10T05:20:49;101211.64;;;10.81;45.22
75553;BME280;64136;53.118;17.996;2023-05-10T05:23:16;101213.05;;;10.93;44.91
75553;BME280;64136;53.118;17.996;2023-05-10T05:25:42;101211.71;;;11.07;45.05
75553;BME280;64136;53.118;17.996;2023-05-10T05:28:08;101213.23;;;11.21;44.57
75553;BME280;64136;53.118;17.996;2023-05-10T05:30:35;101215.34;;;11.34;44.20
75553;BME280;64136;53.118;17.996;2023-05-10T05:33:01;101217.05;;;11.47;44.13
75553;BME280;64136;53.118;17.996;2023-05-10T05:35:27;101212.52;;;11.60;43.90
75553;BME280;64136;53.118;17.996;2023-05-10T05:37:54;101215.08;;;11.74;43.77
75553;BME280;64136;53.118;17.996;2023-05-10T05:40:20;101214.34;;;11.87;43.74
75553;BME280;64136;53.118;17.996;2023-05-10T05:42:46;101212.70;;;11.99;43.10
75553;BME280;64136;53.118;17.996;2023-05-10T05:45:20;101208.69;;;12.13;42.70
75553;BME280;64136;53.118;17.996;2023-05-10T05:47:47;101207.88;;;12.23;42.70
75553;BME280;64136;53.118;17.996;2023-05-10T05:52:39;101208.44;;;12.45;41.73
75553;BME280;64136;53.118;17.996;2023-05-10T05:55:06;101205.17;;;12.57;42.09
75553;BME280;64136;53.118;17.996;2023-05-10T05:57:32;101207.68;;;12.68;41.49
75553;BME280;64136;53.118;17.996;2023-05-10T06:00:06;101204.85;;;12.79;41.44
75553;BME280;64136;53.118;17.996;2023-05-10T06:02:38;101203.80;;;12.90;41.50
75553;BME280;64136;53.118;17.996;2023-05-10T06:05:06;101203.65;;;12.98;40.64
75553;BME280;64136;53.118;17.996;2023-05-10T06:07:35;101204.20;;;13.05;40.64
75553;BME280;64136;53.118;17.996;2023-05-10T06:10:01;101202.39;;;13.11;40.63
75553;BME280;64136;53.118;17.996;2023-05-10T06:12:28;101205.70;;;13.18;40.69
75553;BME280;64136;53.118;17.996;2023-05-10T06:14:55;101205.95;;;13.25;40.53
75553;BME280;64136;53.118;17.996;2023-05-10T06:17:21;101212.52;;;13.36;40.55
75553;BME280;64136;53.118;17.996;2023-05-10T06:19:48;101210.48;;;13.45;39.62
75553;BME280;64136;53.118;17.996;2023-05-10T06:22:14;101213.20;;;13.52;38.73
75553;BME280;64136;53.118;17.996;2023-05-10T06:24:40;101208.56;;;13.63;39.23
75553;BME280;64136;53.118;17.996;2023-05-10T06:27:07;101207.36;;;13.70;38.25
75553;BME280;64136;53.118;17.996;2023-05-10T06:29:34;101210.28;;;13.79;38.60
75553;BME280;64136;53.118;17.996;2023-05-10T06:32:00;101209.73;;;13.90;38.83
75553;BME280;64136;53.118;17.996;2023-05-10T06:34:26;101209.55;;;14.00;38.24
75553;BME280;64136;53.118;17.996;2023-05-10T06:36:53;101204.11;;;14.10;38.81
75553;BME280;64136;53.118;17.996;2023-05-10T06:39:19;101206.30;;;14.19;38.17
75553;BME280;64136;53.118;17.996;2023-05-10T06:41:45;101204.65;;;14.27;37.61
75553;BME280;64136;53.118;17.996;2023-05-10T06:44:12;101203.77;;;14.37;38.09
75553;BME280;64136;53.118;17.996;2023-05-10T06:46:39;101205.83;;;14.46;37.53
75553;BME280;64136;53.118;17.996;2023-05-10T06:49:05;101201.72;;;14.51;36.84
75553;BME280;64136;53.118;17.996;2023-05-10T06:51:31;101201.98;;;14.60;37.26
75553;BME280;64136;53.118;17.996;2023-05-10T06:53:58;101196.27;;;14.70;37.68
75553;BME280;64136;53.118;17.996;2023-05-10T06:56:25;101202.67;;;14.80;36.73
75553;BME280;64136;53.118;17.996;2023-05-10T06:58:52;101200.11;;;14.88;37.00
75553;BME280;64136;53.118;17.996;2023-05-10T07:03:45;101204.52;;;15.01;35.65
75553;BME280;64136;53.118;17.996;2023-05-10T07:06:11;101202.42;;;15.08;35.91
75553;BME280;64136;53.118;17.996;2023-05-10T07:08:37;101204.74;;;15.17;35.92
75553;BME280;64136;53.118;17.996;2023-05-10T07:13:31;101203.23;;;15.32;35.24
75553;BME280;64136;53.118;17.996;2023-05-10T07:15:59;101200.89;;;15.40;35.17
75553;BME280;64136;53.118;17.996;2023-05-10T07:18:40;101196.04;;;15.50;34.78
75553;BME280;64136;53.118;17.996;2023-05-10T07:21:06;101196.10;;;15.56;34.93
75553;BME280;64136;53.118;17.996;2023-05-10T07:23:33;101195.39;;;15.64;34.77
75553;BME280;64136;53.118;17.996;2023-05-10T07:25:59;101192.82;;;15.69;34.45
75553;BME280;64136;53.118;17.996;2023-05-10T07:28:26;101192.15;;;15.75;34.19
75553;BME280;64136;53.118;17.996;2023-05-10T07:33:21;101188.02;;;15.85;34.39
75553;BME280;64136;53.118;17.996;2023-05-10T07:35:49;101192.11;;;15.85;34.19
75553;BME280;64136;53.118;17.996;2023-05-10T07:38:16;101193.39;;;15.89;34.49
75553;BME280;64136;53.118;17.996;2023-05-10T07:40:43;101196.18;;;15.94;34.54
75553;BME280;64136;53.118;17.996;2023-05-10T07:43:09;101197.70;;;16.02;34.19
75553;BME280;64136;53.118;17.996;2023-05-10T07:45:36;101192.98;;;16.13;33.99
75553;BME280;64136;53.118;17.996;2023-05-10T07:48:02;101192.59;;;16.22;33.99
75553;BME280;64136;53.118;17.996;2023-05-10T07:50:29;101189.95;;;16.23;33.85
75553;BME280;64136;53.118;17.996;2023-05-10T07:52:55;101190.73;;;16.28;34.21
75553;BME280;64136;53.118;17.996;2023-05-10T07:55:24;101192.60;;;16.34;33.71
75553;BME280;64136;53.118;17.996;2023-05-10T07:57:51;101196.30;;;16.43;34.03
75553;BME280;64136;53.118;17.996;2023-05-10T08:00:18;101195.27;;;16.49;33.61
75553;BME280;64136;53.118;17.996;2023-05-10T08:02:46;101196.38;;;16.58;33.80
75553;BME280;64136;53.118;17.996;2023-05-10T08:07:39;101193.08;;;16.65;32.61
75553;BME280;64136;53.118;17.996;2023-05-10T08:10:07;101188.95;;;16.68;32.50
75553;BME280;64136;53.118;17.996;2023-05-10T08:12:33;101187.55;;;16.65;32.70
75553;BME280;64136;53.118;17.996;2023-05-10T08:15:00;101181.10;;;16.65;32.41
75553;BME280;64136;53.118;17.996;2023-05-10T08:17:26;101184.55;;;16.67;32.83
75553;BME280;64136;53.118;17.996;2023-05-10T08:19:52;101180.02;;;16.74;32.39
75553;BME280;64136;53.118;17.996;2023-05-10T08:22:19;101187.66;;;16.84;32.08
75553;BME280;64136;53.118;17.996;2023-05-10T08:27:19;101187.30;;;17.03;32.13
75553;BME280;64136;53.118;17.996;2023-05-10T08:29:46;101186.98;;;17.13;32.36
75553;BME280;64136;53.118;17.996;2023-05-10T08:32:12;101187.23;;;17.23;32.09
75553;BME280;64136;53.118;17.996;2023-05-10T08:34:39;101189.70;;;17.26;31.41
75553;BME280;64136;53.118;17.996;2023-05-10T08:37:09;101186.36;;;17.28;30.82
75553;BME280;64136;53.118;17.996;2023-05-10T08:39:38;101181.06;;;17.29;30.99
75553;BME280;64136;53.118;17.996;2023-05-10T08:42:06;101187.39;;;17.32;31.54
75553;BME280;64136;53.118;17.996;2023-05-10T08:44:34;101186.63;;;17.37;31.44
75553;BME280;64136;53.118;17.996;2023-05-10T08:47:05;101185.06;;;17.39;31.27
75553;BME280;64136;53.118;17.996;2023-05-10T08:49:33;101183.77;;;17.37;30.92
75553;BME280;64136;53.118;17.996;2023-05-10T08:52:02;101186.34;;;17.38;31.11
75553;BME280;64136;53.118;17.996;2023-05-10T08:54:31;101181.86;;;17.47;31.38
75553;BME280;64136;53.118;17.996;2023-05-10T08:57:01;101178.09;;;17.53;31.13
75553;BME280;64136;53.118;17.996;2023-05-10T08:59:30;101178.59;;;17.62;30.54
75553;BME280;64136;53.118;17.996;2023-05-10T09:01:58;101181.55;;;17.72;30.92
75553;BME280;64136;53.118;17.996;2023-05-10T09:04:25;101177.73;;;17.81;30.77
75553;BME280;64136;53.118;17.996;2023-05-10T09:06:53;101178.55;;;17.92;30.80
75553;BME280;64136;53.118;17.996;2023-05-10T09:11:47;101177.61;;;18.07;30.34
75553;BME280;64136;53.118;17.996;2023-05-10T09:14:15;101174.98;;;18.13;30.27
75553;BME280;64136;53.118;17.996;2023-05-10T09:16:42;101173.52;;;18.25;30.32
75553;BME280;64136;53.118;17.996;2023-05-10T09:19:09;101175.67;;;18.35;29.94
75553;BME280;64136;53.118;17.996;2023-05-10T09:21:36;101175.44;;;18.38;29.65
75553;BME280;64136;53.118;17.996;2023-05-10T09:24:07;101171.91;;;18.43;29.31
75553;BME280;64136;53.118;17.996;2023-05-10T09:26:35;101167.63;;;18.55;29.40
75553;BME280;64136;53.118;17.996;2023-05-10T09:29:02;101173.73;;;18.57;29.55
75553;BME280;64136;53.118;17.996;2023-05-10T09:31:43;101164.48;;;18.66;29.62
75553;BME280;64136;53.118;17.996;2023-05-10T09:34:11;101174.04;;;18.72;29.10
75553;BME280;64136;53.118;17.996;2023-05-10T09:36:53;101167.98;;;18.82;29.19
75553;BME280;64136;53.118;17.996;2023-05-10T09:39:20;101169.69;;;18.90;29.17
75553;BME280;64136;53.118;17.996;2023-05-10T09:41:47;101167.98;;;19.03;29.18
75553;BME280;64136;53.118;17.996;2023-05-10T09:44:17;101166.77;;;19.10;28.81
75553;BME280;64136;53.118;17.996;2023-05-10T09:46:49;101166.73;;;19.10;28.35
75553;BME280;64136;53.118;17.996;2023-05-10T09:49:20;101170.02;;;19.18;28.60
75553;BME280;64136;53.118;17.996;2023-05-10T09:51:46;101168.83;;;19.23;28.80
75553;BME280;64136;53.118;17.996;2023-05-10T09:54:15;101168.80;;;19.25;28.92
75553;BME280;64136;53.118;17.996;2023-05-10T09:56:42;101157.61;;;19.38;29.04
75553;BME280;64136;53.118;17.996;2023-05-10T09:59:10;101159.88;;;19.36;28.91
75553;BME280;64136;53.118;17.996;2023-05-10T10:04:13;101159.39;;;19.45;28.14
75553;BME280;64136;53.118;17.996;2023-05-10T10:06:43;101154.92;;;19.41;28.69
75553;BME280;64136;53.118;17.996;2023-05-10T10:09:10;101152.28;;;19.39;28.68
75553;BME280;64136;53.118;17.996;2023-05-10T10:11:38;101154.83;;;19.44;28.75
75553;BME280;64136;53.118;17.996;2023-05-10T10:14:05;101155.95;;;19.48;28.70
75553;BME280;64136;53.118;17.996;2023-05-10T10:16:32;101146.02;;;19.56;28.82
75553;BME280;64136;53.118;17.996;2023-05-10T10:18:59;101140.18;;;19.59;28.62
75553;BME280;64136;53.118;17.996;2023-05-10T10:21:28;101140.38;;;19.62;28.40
75553;BME280;64136;53.118;17.996;2023-05-10T10:23:54;101137.02;;;19.68;28.06
75553;BME280;64136;53.118;17.996;2023-05-10T10:26:26;101137.98;;;19.71;27.78
75553;BME280;64136;53.118;17.996;2023-05-10T10:29:02;101135.77;;;19.67;27.77
75553;BME280;64136;53.118;17.996;2023-05-10T10:31:40;101134.98;;;19.68;27.96
75553;BME280;64136;53.118;17.996;2023-05-10T10:34:09;101138.37;;;19.76;28.27
75553;BME280;64136;53.118;17.996;2023-05-10T10:36:45;101137.13;;;19.87;27.86
75553;BME280;64136;53.118;17.996;2023-05-10T10:39:12;101128.45;;;19.94;27.46
75553;BME280;64136;53.118;17.996;2023-05-10T10:41:49;101119.32;;;19.89;27.55
75553;BME280;64136;53.118;17.996;2023-05-10T10:44:25;101120.67;;;19.88;27.53
75553;BME280;64136;53.118;17.996;2023-05-10T10:47:04;101125.97;;;19.91;27.36
75553;BME280;64136;53.118;17.996;2023-05-10T10:49:33;101127.98;;;20.02;27.35
75553;BME280;64136;53.118;17.996;2023-05-10T10:52:13;101128.02;;;20.07;27.41
75553;BME280;64136;53.118;17.996;2023-05-10T10:54:49;101123.69;;;20.09;27.56
75553;BME280;64136;53.118;17.996;2023-05-10T10:57:18;101119.21;;;20.12;27.18
75553;BME280;64136;53.118;17.996;2023-05-10T10:59:45;101119.45;;;20.14;27.59
75553;BME280;64136;53.118;17.996;2023-05-10T11:05:24;101116.73;;;20.20;26.97
75553;BME280;64136;53.118;17.996;2023-05-10T11:07:57;101121.52;;;20.28;27.36
75553;BME280;64136;53.118;17.996;2023-05-10T11:12:53;101118.27;;;20.42;27.12
75553;BME280;64136;53.118;17.996;2023-05-10T11:15:20;101119.50;;;20.47;27.37
75553;BME280;64136;53.118;17.996;2023-05-10T11:17:48;101118.31;;;20.55;27.44
75553;BME280;64136;53.118;17.996;2023-05-10T11:20:22;101119.76;;;20.68;27.28
75553;BME280;64136;53.118;17.996;2023-05-10T11:22:52;101115.37;;;20.57;26.98
75553;BME280;64136;53.118;17.996;2023-05-10T11:25:19;101121.33;;;20.55;27.49
75553;BME280;64136;53.118;17.996;2023-05-10T11:27:50;101113.70;;;20.74;27.32
75553;BME280;64136;53.118;17.996;2023-05-10T11:30:17;101111.88;;;20.71;26.78
75553;BME280;64136;53.118;17.996;2023-05-10T11:32:43;101111.23;;;20.81;27.17
75553;BME280;64136;53.118;17.996;2023-05-10T11:35:11;101108.58;;;21.07;26.78
75553;BME280;64136;53.118;17.996;2023-05-10T11:37:38;101106.64;;;21.56;26.38
75553;BME280;64136;53.118;17.996;2023-05-10T11:40:09;101108.08;;;22.17;25.39
75553;BME280;64136;53.118;17.996;2023-05-10T11:42:37;101095.88;;;22.57;24.43
75553;BME280;64136;53.118;17.996;2023-05-10T11:45:05;101094.66;;;22.90;24.25
75553;BME280;64136;53.118;17.996;2023-05-10T11:47:32;101097.74;;;23.34;24.49
75553;BME280;64136;53.118;17.996;2023-05-10T11:49:59;101102.76;;;23.67;24.23
75553;BME280;64136;53.118;17.996;2023-05-10T11:52:26;101104.63;;;23.98;22.76
75553;BME280;64136;53.118;17.996;2023-05-10T11:54:53;101110.02;;;24.41;23.53
75553;BME280;64136;53.118;17.996;2023-05-10T11:57:26;101104.66;;;24.86;22.97
75553;BME280;64136;53.118;17.996;2023-05-10T11:59:53;101100.34;;;24.76;21.44
75553;BME280;64136;53.118;17.996;2023-05-10T12:02:21;101091.20;;;24.72;20.97
75553;BME280;64136;53.118;17.996;2023-05-10T12:04:50;101090.10;;;24.96;21.41
75553;BME280;64136;53.118;17.996;2023-05-10T12:07:17;101090.70;;;25.34;21.53
75553;BME280;64136;53.118;17.996;2023-05-10T12:12:44;101083.93;;;25.87;20.84
75553;BME280;64136;53.118;17.996;2023-05-10T12:15:18;101087.32;;;26.06;20.10
75553;BME280;64136;53.118;17.996;2023-05-10T12:17:46;101094.17;;;26.37;19.90
75553;BME280;64136;53.118;17.996;2023-05-10T12:20:13;101092.67;;;26.72;20.04
75553;BME280;64136;53.118;17.996;2023-05-10T12:22:40;101093.90;;;26.87;19.46
75553;BME280;64136;53.118;17.996;2023-05-10T12:25:08;101091.16;;;26.67;19.01
75553;BME280;64136;53.118;17.996;2023-05-10T12:27:35;101089.98;;;27.04;19.23
75553;BME280;64136;53.118;17.996;2023-05-10T12:30:02;101092.45;;;26.44;18.78
75553;BME280;64136;53.118;17.996;2023-05-10T12:32:41;101084.52;;;26.73;18.72
75553;BME280;64136;53.118;17.996;2023-05-10T12:35:07;101080.76;;;27.09;18.99
75553;BME280;64136;53.118;17.996;2023-05-10T12:37:35;101089.50;;;27.46;18.51
75553;BME280;64136;53.118;17.996;2023-05-10T12:40:10;101085.02;;;27.68;18.13
75553;BME280;64136;53.118;17.996;2023-05-10T12:42:38;101082.21;;;27.49;17.79
75553;BME280;64136;53.118;17.996;2023-05-10T12:45:06;101080.25;;;27.85;17.69
75553;BME280;64136;53.118;17.996;2023-05-10T12:47:33;101088.38;;;27.82;17.69
75553;BME280;64136;53.118;17.996;2023-05-10T12:50:00;101090.67;;;28.54;17.93
75553;BME280;64136;53.118;17.996;2023-05-10T12:52:27;101085.23;;;28.53;17.12
75553;BME280;64136;53.118;17.996;2023-05-10T12:54:54;101086.57;;;28.76;17.28
75553;BME280;64136;53.118;17.996;2023-05-10T12:57:24;101078.19;;;29.34;16.52
75553;BME280;64136;53.118;17.996;2023-05-10T12:59:50;101076.86;;;29.39;16.33
75553;BME280;64136;53.118;17.996;2023-05-10T13:02:17;101074.62;;;29.70;16.15
75553;BME280;64136;53.118;17.996;2023-05-10T13:04:44;101080.80;;;29.98;15.87
75553;BME280;64136;53.118;17.996;2023-05-10T13:07:12;101072.48;;;30.48;15.71
75553;BME280;64136;53.118;17.996;2023-05-10T13:09:38;101073.37;;;30.49;15.51
75553;BME280;64136;53.118;17.996;2023-05-10T13:12:04;101079.52;;;30.45;15.58
75553;BME280;64136;53.118;17.996;2023-05-10T13:14:31;101074.92;;;30.63;15.26
75553;BME280;64136;53.118;17.996;2023-05-10T13:16:57;101065.24;;;30.45;15.34
75553;BME280;64136;53.118;17.996;2023-05-10T13:19:23;101067.54;;;30.42;15.41
75553;BME280;64136;53.118;17.996;2023-05-10T13:21:50;101075.38;;;30.74;15.37
75553;BME280;64136;53.118;17.996;2023-05-10T13:24:16;101065.86;;;30.45;15.44
75553;BME280;64136;53.118;17.996;2023-05-10T13:26:43;101065.48;;;30.51;15.47
75553;BME280;64136;53.118;17.996;2023-05-10T13:29:09;101064.46;;;30.86;15.16
75553;BME280;64136;53.118;17.996;2023-05-10T13:31:36;101060.73;;;31.31;15.06
75553;BME280;64136;53.118;17.996;2023-05-10T13:34:02;101052.73;;;31.98;14.62
75553;BME280;64136;53.118;17.996;2023-05-10T13:36:28;101052.48;;;32.92;14.15
75553;BME280;64136;53.118;17.996;2023-05-10T13:38:55;101046.05;;;33.16;13.78